sensor_id;sensor_type;location;lat;lon;timestamp;pressure;altitude;pressure_sealevel;temperature;humidity
62617;BME280;62539;51.190;6.808;2023-04-06T00:00:53;101517.91;;;19.26;46.67
62617;BME280;62539;51.190;6.808;2023-04-06T00:03:19;101514.47;;;19.22;46.84
62617;BME280;62539;51.190;6.808;2023-04-06T00:05:46;101518.00;;;19.21;47.07
62617;BME280;62539;51.190;6.808;2023-04-06T00:08:12;101509.34;;;19.17;47.13
62617;BME280;62539;51.190;6.808;2023-04-06T00:10:37;101511.09;;;19.17;46.96
62617;BME280;62539;51.190;6.808;2023-04-06T00:13:02;101504.16;;;19.14;47.25
62617;BME280;62539;51.190;6.808;2023-04-06T00:15:28;101512.97;;;19.12;47.25
62617;BME280;62539;51.190;6.808;2023-04-06T00:17:54;101506.88;;;19.09;47.13
62617;BME280;62539;51.190;6.808;2023-04-06T00:20:20;101504.31;;;19.08;47.32
62617;BME280;62539;51.190;6.808;2023-04-06T00:22:45;101506.97;;;19.06;47.22
62617;BME280;62539;51.190;6.808;2023-04-06T00:25:11;101505.22;;;19.05;47.29
62617;BME280;62539;51.190;6.808;2023-04-06T00:27:37;101504.41;;;19.03;47.38
62617;BME280;62539;51.190;6.808;2023-04-06T00:30:04;101506.22;;;19.01;47.39
62617;BME280;62539;51.190;6.808;2023-04-06T00:32:31;101499.22;;;19.00;47.35
62617;BME280;62539;51.190;6.808;2023-04-06T00:34:56;101502.81;;;18.98;47.51
62617;BME280;62539;51.190;6.808;2023-04-06T00:37:22;101498.44;;;18.97;47.47
62617;BME280;62539;51.190;6.808;2023-04-06T00:39:48;101496.72;;;18.94;47.64
62617;BME280;62539;51.190;6.808;2023-04-06T00:42:14;101495.03;;;18.91;47.63
62617;BME280;62539;51.190;6.808;2023-04-06T00:44:40;101497.69;;;18.90;47.61
62617;BME280;62539;51.190;6.808;2023-04-06T00:47:06;101493.34;;;18.89;47.95
62617;BME280;62539;51.190;6.808;2023-04-06T00:49:33;101489.88;;;18.87;47.62
62617;BME280;62539;51.190;6.808;2023-04-06T00:51:59;101487.25;;;18.87;47.83
62617;BME280;62539;51.190;6.808;2023-04-06T00:54:25;101481.16;;;18.85;47.82
62617;BME280;62539;51.190;6.808;2023-04-06T00:56:50;101485.59;;;18.83;47.71
62617;BME280;62539;51.190;6.808;2023-04-06T00:59:16;101481.25;;;18.81;47.66
62617;BME280;62539;51.190;6.808;2023-04-06T01:01:42;101469.06;;;18.79;47.96
62617;BME280;62539;51.190;6.808;2023-04-06T01:04:07;101468.16;;;18.78;47.71
62617;BME280;62539;51.190;6.808;2023-04-06T01:06:33;101469.97;;;18.76;47.89
62617;BME280;62539;51.190;6.808;2023-04-06T01:08:58;101471.78;;;18.74;48.16
62617;BME280;62539;51.190;6.808;2023-04-06T01:11:24;101465.66;;;18.74;48.33
62617;BME280;62539;51.190;6.808;2023-04-06T01:13:49;101455.19;;;18.72;47.82
62617;BME280;62539;51.190;6.808;2023-04-06T01:16:15;101456.97;;;18.70;48.09
62617;BME280;62539;51.190;6.808;2023-04-06T01:18:40;101461.41;;;18.68;48.14
62617;BME280;62539;51.190;6.808;2023-04-06T01:21:07;101454.44;;;18.67;48.23
62617;BME280;62539;51.190;6.808;2023-04-06T01:23:34;101452.69;;;18.66;48.10
62617;BME280;62539;51.190;6.808;2023-04-06T01:26:00;101456.22;;;18.65;48.25
62617;BME280;62539;51.190;6.808;2023-04-06T01:28:25;101451.88;;;18.64;48.12
62617;BME280;62539;51.190;6.808;2023-04-06T01:30:51;101444.88;;;18.63;48.17
62617;BME280;62539;51.190;6.808;2023-04-06T01:33:16;101454.56;;;18.62;48.40
62617;BME280;62539;51.190;6.808;2023-04-06T01:35:42;101447.56;;;18.61;48.26
62617;BME280;62539;51.190;6.808;2023-04-06T01:38:07;101440.59;;;18.59;48.37
62617;BME280;62539;51.190;6.808;2023-04-06T01:40:32;101445.88;;;18.59;48.09
62617;BME280;62539;51.190;6.808;2023-04-06T01:42:58;101440.66;;;18.57;48.35
62617;BME280;62539;51.190;6.808;2023-04-06T01:45:23;101440.69;;;18.56;48.22
62617;BME280;62539;51.190;6.808;2023-04-06T01:47:48;101438.97;;;18.55;48.48
62617;BME280;62539;51.190;6.808;2023-04-06T01:50:14;101437.25;;;18.54;48.18
62617;BME280;62539;51.190;6.808;2023-04-06T01:52:40;101441.69;;;18.51;48.52
62617;BME280;62539;51.190;6.808;2023-04-06T01:55:06;101429.44;;;18.50;48.49
62617;BME280;62539;51.190;6.808;2023-04-06T01:57:31;101434.72;;;18.49;48.47
62617;BME280;62539;51.190;6.808;2023-04-06T01:59:57;101427.78;;;18.46;48.54
62617;BME280;62539;51.190;6.808;2023-04-06T02:02:22;101434.78;;;18.46;48.45
62617;BME280;62539;51.190;6.808;2023-04-06T02:04:48;101439.19;;;18.45;48.38
62617;BME280;62539;51.190;6.808;2023-04-06T02:07:13;101432.22;;;18.44;48.41
62617;BME280;62539;51.190;6.808;2023-04-06T02:09:39;101428.75;;;18.42;48.53
62617;BME280;62539;51.190;6.808;2023-04-06T02:12:05;101431.41;;;18.42;48.64
62617;BME280;62539;51.190;6.808;2023-04-06T02:14:30;101429.69;;;18.40;48.70
62617;BME280;62539;51.190;6.808;2023-04-06T02:16:55;101431.47;;;18.39;48.51
62617;BME280;62539;51.190;6.808;2023-04-06T02:19:21;101425.38;;;18.37;48.69
62617;BME280;62539;51.190;6.808;2023-04-06T02:21:47;101425.38;;;18.37;48.68
62617;BME280;62539;51.190;6.808;2023-04-06T02:24:12;101422.81;;;18.34;48.71
62617;BME280;62539;51.190;6.808;2023-04-06T02:26:38;101428.97;;;18.33;48.70
62617;BME280;62539;51.190;6.808;2023-04-06T02:29:03;101420.28;;;18.31;48.71
62617;BME280;62539;51.190;6.808;2023-04-06T02:31:29;101418.53;;;18.30;48.98
62617;BME280;62539;51.190;6.808;2023-04-06T02:33:54;101411.56;;;18.29;48.93
62617;BME280;62539;51.190;6.808;2023-04-06T02:36:20;101415.09;;;18.28;48.80
62617;BME280;62539;51.190;6.808;2023-04-06T02:38:45;101411.63;;;18.26;48.91
62617;BME280;62539;51.190;6.808;2023-04-06T02:41:11;101420.41;;;18.25;48.78
62617;BME280;62539;51.190;6.808;2023-04-06T02:43:36;101408.19;;;18.24;48.78
62617;BME280;62539;51.190;6.808;2023-04-06T02:46:01;101418.69;;;18.22;48.97
62617;BME280;62539;51.190;6.808;2023-04-06T02:48:27;101406.53;;;18.19;49.26
62617;BME280;62539;51.190;6.808;2023-04-06T02:50:52;101417.03;;;18.19;49.00
62617;BME280;62539;51.190;6.808;2023-04-06T02:53:18;101409.16;;;18.18;48.93
62617;BME280;62539;51.190;6.808;2023-04-06T02:55:43;101413.56;;;18.17;49.04
62617;BME280;62539;51.190;6.808;2023-04-06T02:58:08;101403.13;;;18.14;48.97
62617;BME280;62539;51.190;6.808;2023-04-06T03:00:34;101408.38;;;18.14;49.10
62617;BME280;62539;51.190;6.808;2023-04-06T03:02:59;101411.94;;;18.12;49.36
62617;BME280;62539;51.190;6.808;2023-04-06T03:05:25;101404.94;;;18.12;49.09
62617;BME280;62539;51.190;6.808;2023-04-06T03:07:50;101401.47;;;18.10;49.05
62617;BME280;62539;51.190;6.808;2023-04-06T03:10:16;101399.75;;;18.09;49.26
62617;BME280;62539;51.190;6.808;2023-04-06T03:12:41;101407.63;;;18.09;49.22
62617;BME280;62539;51.190;6.808;2023-04-06T03:15:07;101407.66;;;18.07;49.21
62617;BME280;62539;51.190;6.808;2023-04-06T03:17:33;101404.19;;;18.05;49.47
62617;BME280;62539;51.190;6.808;2023-04-06T03:19:58;101399.84;;;18.04;49.30
62617;BME280;62539;51.190;6.808;2023-04-06T03:22:24;101396.38;;;18.04;49.25
62617;BME280;62539;51.190;6.808;2023-04-06T03:24:49;101400.72;;;18.03;49.18
62617;BME280;62539;51.190;6.808;2023-04-06T03:27:15;101405.13;;;18.03;49.32
62617;BME280;62539;51.190;6.808;2023-04-06T03:29:40;101399.06;;;18.01;49.35
62617;BME280;62539;51.190;6.808;2023-04-06T03:32:07;101394.72;;;18.00;49.12
62617;BME280;62539;51.190;6.808;2023-04-06T03:34:32;101396.44;;;18.01;49.12
62617;BME280;62539;51.190;6.808;2023-04-06T03:36:58;101399.88;;;18.03;49.34
62617;BME280;62539;51.190;6.808;2023-04-06T03:39:23;101401.47;;;18.10;48.94
62617;BME280;62539;51.190;6.808;2023-04-06T03:41:48;101401.19;;;18.23;48.65
62617;BME280;62539;51.190;6.808;2023-04-06T03:44:14;101403.50;;;18.36;48.52
62617;BME280;62539;51.190;6.808;2023-04-06T03:46:39;101400.53;;;18.50;48.24
62617;BME280;62539;51.190;6.808;2023-04-06T03:49:05;101405.47;;;18.63;47.92
62617;BME280;62539;51.190;6.808;2023-04-06T03:51:30;101394.63;;;18.77;47.51
62617;BME280;62539;51.190;6.808;2023-04-06T03:53:56;101394.31;;;18.89;47.16
62617;BME280;62539;51.190;6.808;2023-04-06T03:56:21;101398.31;;;19.04;47.03
62617;BME280;62539;51.190;6.808;2023-04-06T03:58:46;101394.47;;;19.18;46.66
62617;BME280;62539;51.190;6.808;2023-04-06T04:01:16;101388.03;;;19.28;46.55
62617;BME280;62539;51.190;6.808;2023-04-06T04:03:42;101393.13;;;19.34;46.50
62617;BME280;62539;51.190;6.808;2023-04-06T04:06:08;101396.50;;;19.39;46.33
62617;BME280;62539;51.190;6.808;2023-04-06T04:08:33;101394.69;;;19.42;46.17
62617;BME280;62539;51.190;6.808;2023-04-06T04:11:00;101392.88;;;19.44;45.98
62617;BME280;62539;51.190;6.808;2023-04-06T04:13:25;101400.69;;;19.47;46.23
62617;BME280;62539;51.190;6.808;2023-04-06T04:15:51;101394.41;;;19.51;46.06
62617;BME280;62539;51.190;6.808;2023-04-06T04:18:16;101395.97;;;19.58;45.85
62617;BME280;62539;51.190;6.808;2023-04-06T04:20:42;101401.06;;;19.64;45.88
62617;BME280;62539;51.190;6.808;2023-04-06T04:23:07;101393.78;;;19.73;45.46
62617;BME280;62539;51.190;6.808;2023-04-06T04:25:32;101400.56;;;19.81;45.49
62617;BME280;62539;51.190;6.808;2023-04-06T04:27:58;101400.34;;;19.89;45.34
62617;BME280;62539;51.190;6.808;2023-04-06T04:30:23;101410.63;;;19.98;45.16
62617;BME280;62539;51.190;6.808;2023-04-06T04:32:49;101400.69;;;20.08;44.86
62617;BME280;62539;51.190;6.808;2023-04-06T04:35:14;101401.34;;;20.15;44.60
62617;BME280;62539;51.190;6.808;2023-04-06T04:37:41;101398.50;;;20.21;44.60
62617;BME280;62539;51.190;6.808;2023-04-06T04:40:06;101398.41;;;20.24;44.62
62617;BME280;62539;51.190;6.808;2023-04-06T04:42:33;101406.28;;;20.26;44.43
62617;BME280;62539;51.190;6.808;2023-04-06T04:44:59;101399.28;;;20.25;44.33
62617;BME280;62539;51.190;6.808;2023-04-06T04:47:24;101399.22;;;20.26;44.19
62617;BME280;62539;51.190;6.808;2023-04-06T04:49:50;101399.94;;;20.32;44.31
62617;BME280;62539;51.190;6.808;2023-04-06T04:52:15;101395.38;;;20.37;44.22
62617;BME280;62539;51.190;6.808;2023-04-06T04:54:40;101396.06;;;20.44;43.98
62617;BME280;62539;51.190;6.808;2023-04-06T04:57:06;101398.53;;;20.48;43.89
62617;BME280;62539;51.190;6.808;2023-04-06T04:59:31;101394.06;;;20.50;43.80
62617;BME280;62539;51.190;6.808;2023-04-06T05:01:57;101399.41;;;20.49;43.99
62617;BME280;62539;51.190;6.808;2023-04-06T05:04:22;101400.34;;;20.46;43.75
62617;BME280;62539;51.190;6.808;2023-04-06T05:06:49;101395.06;;;20.48;44.02
62617;BME280;62539;51.190;6.808;2023-04-06T05:09:14;101398.50;;;20.50;44.10
62617;BME280;62539;51.190;6.808;2023-04-06T05:11:40;101404.47;;;20.55;43.69
62617;BME280;62539;51.190;6.808;2023-04-06T05:14:05;101393.75;;;20.60;43.63
62617;BME280;62539;51.190;6.808;2023-04-06T05:16:32;101404.22;;;20.63;43.56
62617;BME280;62539;51.190;6.808;2023-04-06T05:18:58;101405.03;;;20.65;43.60
62617;BME280;62539;51.190;6.808;2023-04-06T05:21:24;101405.13;;;20.62;43.64
62617;BME280;62539;51.190;6.808;2023-04-06T05:23:51;101411.31;;;20.61;43.56
62617;BME280;62539;51.190;6.808;2023-04-06T05:26:16;101407.75;;;20.62;43.68
62617;BME280;62539;51.190;6.808;2023-04-06T05:28:42;101401.47;;;20.66;43.47
62617;BME280;62539;51.190;6.808;2023-04-06T05:31:09;101398.69;;;20.70;43.20
62617;BME280;62539;51.190;6.808;2023-04-06T05:33:34;101397.69;;;20.75;42.98
62617;BME280;62539;51.190;6.808;2023-04-06T05:36:00;101397.59;;;20.76;43.06
62617;BME280;62539;51.190;6.808;2023-04-06T05:38:26;101402.03;;;20.76;43.03
62617;BME280;62539;51.190;6.808;2023-04-06T05:40:51;101406.44;;;20.75;43.42
62617;BME280;62539;51.190;6.808;2023-04-06T05:43:17;101403.72;;;20.78;43.54
62617;BME280;62539;51.190;6.808;2023-04-06T05:45:44;101400.13;;;20.81;43.63
62617;BME280;62539;51.190;6.808;2023-04-06T05:48:10;101402.59;;;20.85;43.68
62617;BME280;62539;51.190;6.808;2023-04-06T05:50:35;101401.66;;;20.88;43.58
62617;BME280;62539;51.190;6.808;2023-04-06T05:53:01;101409.50;;;20.90;43.57
62617;BME280;62539;51.190;6.808;2023-04-06T05:55:26;101406.84;;;20.90;43.70
62617;BME280;62539;51.190;6.808;2023-04-06T05:57:52;101413.03;;;20.89;43.73
62617;BME280;62539;51.190;6.808;2023-04-06T06:00:18;101411.31;;;20.88;43.76
62617;BME280;62539;51.190;6.808;2023-04-06T06:02:44;101405.09;;;20.90;43.64
62617;BME280;62539;51.190;6.808;2023-04-06T06:05:10;101404.91;;;20.95;43.46
62617;BME280;62539;51.190;6.808;2023-04-06T06:07:36;101410.97;;;20.98;43.35
62617;BME280;62539;51.190;6.808;2023-04-06T06:10:02;101402.06;;;21.01;43.59
62617;BME280;62539;51.190;6.808;2023-04-06T06:12:27;101400.25;;;21.03;43.45
62617;BME280;62539;51.190;6.808;2023-04-06T06:14:53;101394.97;;;21.03;43.31
62617;BME280;62539;51.190;6.808;2023-04-06T06:17:20;101401.16;;;21.02;43.38
62617;BME280;62539;51.190;6.808;2023-04-06T06:19:45;101392.28;;;21.05;43.36
62617;BME280;62539;51.190;6.808;2023-04-06T06:22:11;101393.03;;;21.08;43.41
62617;BME280;62539;51.190;6.808;2023-04-06T06:24:36;101397.28;;;21.12;43.70
62617;BME280;62539;51.190;6.808;2023-04-06T06:27:01;101392.69;;;21.18;43.52
62617;BME280;62539;51.190;6.808;2023-04-06T06:29:27;101394.41;;;21.19;43.47
62617;BME280;62539;51.190;6.808;2023-04-06T06:31:52;101390.88;;;21.20;43.63
62617;BME280;62539;51.190;6.808;2023-04-06T06:34:18;101391.78;;;21.19;43.42
62617;BME280;62539;51.190;6.808;2023-04-06T06:36:43;101396.16;;;21.20;43.77
62617;BME280;62539;51.190;6.808;2023-04-06T06:39:09;101410.16;;;21.22;43.52
62617;BME280;62539;51.190;6.808;2023-04-06T06:41:34;101404.66;;;21.28;43.46
62617;BME280;62539;51.190;6.808;2023-04-06T06:44:00;101407.06;;;21.34;43.30
62617;BME280;62539;51.190;6.808;2023-04-06T06:46:26;101400.66;;;21.41;43.42
62617;BME280;62539;51.190;6.808;2023-04-06T06:48:51;101395.25;;;21.44;42.91
62617;BME280;62539;51.190;6.808;2023-04-06T06:51:17;101388.97;;;21.47;42.76
62617;BME280;62539;51.190;6.808;2023-04-06T06:53:42;101393.31;;;21.50;43.08
62617;BME280;62539;51.190;6.808;2023-04-06T06:56:07;101395.84;;;21.53;42.92
62617;BME280;62539;51.190;6.808;2023-04-06T06:58:33;101390.44;;;21.56;42.84
62617;BME280;62539;51.190;6.808;2023-04-06T07:00:59;101397.25;;;21.63;42.74
62617;BME280;62539;51.190;6.808;2023-04-06T07:03:25;101396.09;;;21.70;43.03
62617;BME280;62539;51.190;6.808;2023-04-06T07:05:51;101390.56;;;21.77;42.73
62617;BME280;62539;51.190;6.808;2023-04-06T07:08:20;101388.53;;;21.83;42.61
62617;BME280;62539;51.190;6.808;2023-04-06T07:10:46;101390.22;;;21.86;42.56
62617;BME280;62539;51.190;6.808;2023-04-06T07:13:12;101393.53;;;21.91;42.72
62617;BME280;62539;51.190;6.808;2023-04-06T07:15:39;101387.25;;;21.94;42.43
62617;BME280;62539;51.190;6.808;2023-04-06T07:18:05;101387.16;;;21.97;42.31
62617;BME280;62539;51.190;6.808;2023-04-06T07:20:30;101380.91;;;21.99;42.68
62617;BME280;62539;51.190;6.808;2023-04-06T07:22:56;101381.63;;;22.03;42.74
62617;BME280;62539;51.190;6.808;2023-04-06T07:25:21;101379.78;;;22.05;42.54
62617;BME280;62539;51.190;6.808;2023-04-06T07:27:46;101375.28;;;22.07;42.36
62617;BME280;62539;51.190;6.808;2023-04-06T07:30:13;101378.81;;;22.08;42.35
62617;BME280;62539;51.190;6.808;2023-04-06T07:32:38;101376.09;;;22.09;42.07
62617;BME280;62539;51.190;6.808;2023-04-06T07:35:04;101377.75;;;22.12;41.89
62617;BME280;62539;51.190;6.808;2023-04-06T07:37:30;101371.44;;;22.16;41.61
62617;BME280;62539;51.190;6.808;2023-04-06T07:39:55;101379.03;;;22.24;41.78
62617;BME280;62539;51.190;6.808;2023-04-06T07:42:21;101375.22;;;22.31;41.57
62617;BME280;62539;51.190;6.808;2023-04-06T07:44:48;101377.69;;;22.36;41.47
62617;BME280;62539;51.190;6.808;2023-04-06T07:47:13;101378.50;;;22.38;41.25
62617;BME280;62539;51.190;6.808;2023-04-06T07:49:39;101376.69;;;22.38;41.45
62617;BME280;62539;51.190;6.808;2023-04-06T07:52:04;101374.91;;;22.39;41.45
62617;BME280;62539;51.190;6.808;2023-04-06T07:54:30;101372.28;;;22.39;41.50
62617;BME280;62539;51.190;6.808;2023-04-06T07:56:55;101371.34;;;22.40;41.54
62617;BME280;62539;51.190;6.808;2023-04-06T07:59:20;101372.16;;;22.42;41.39
62617;BME280;62539;51.190;6.808;2023-04-06T08:01:46;101366.78;;;22.45;41.58
62617;BME280;62539;51.190;6.808;2023-04-06T08:04:11;101369.19;;;22.50;41.58
62617;BME280;62539;51.190;6.808;2023-04-06T08:06:36;101372.50;;;22.55;41.39
62617;BME280;62539;51.190;6.808;2023-04-06T08:09:02;101368.81;;;22.59;40.57
62617;BME280;62539;51.190;6.808;2023-04-06T08:11:28;101373.94;;;22.64;40.52
62617;BME280;62539;51.190;6.808;2023-04-06T08:13:54;101366.56;;;22.70;40.82
62617;BME280;62539;51.190;6.808;2023-04-06T08:16:22;101369.84;;;22.77;40.41
62617;BME280;62539;51.190;6.808;2023-04-06T08:18:47;101373.94;;;22.84;40.29
62617;BME280;62539;51.190;6.808;2023-04-06T08:21:13;101371.94;;;22.89;40.20
62617;BME280;62539;51.190;6.808;2023-04-06T08:23:38;101371.81;;;22.93;40.31
62617;BME280;62539;51.190;6.808;2023-04-06T08:26:04;101363.78;;;22.94;40.02
62617;BME280;62539;51.190;6.808;2023-04-06T08:28:29;101371.69;;;22.96;40.26
62617;BME280;62539;51.190;6.808;2023-04-06T08:30:55;101369.88;;;22.96;40.63
62617;BME280;62539;51.190;6.808;2023-04-06T08:33:20;101367.97;;;23.00;40.85
62617;BME280;62539;51.190;6.808;2023-04-06T08:35:46;101371.28;;;23.05;40.74
62617;BME280;62539;51.190;6.808;2023-04-06T08:38:11;101367.56;;;23.09;40.72
62617;BME280;62539;51.190;6.808;2023-04-06T08:40:40;101352.41;;;23.13;41.20
62617;BME280;62539;51.190;6.808;2023-04-06T08:43:16;101361.06;;;23.16;41.08
62617;BME280;62539;51.190;6.808;2023-04-06T08:45:47;101361.63;;;23.25;41.35
62617;BME280;62539;51.190;6.808;2023-04-06T08:48:14;101354.19;;;23.33;40.97
62617;BME280;62539;51.190;6.808;2023-04-06T08:50:41;101358.91;;;23.45;41.03
62617;BME280;62539;51.190;6.808;2023-04-06T08:53:07;101350.47;;;23.56;40.70
62617;BME280;62539;51.190;6.808;2023-04-06T08:55:33;101353.31;;;23.71;40.09
62617;BME280;62539;51.190;6.808;2023-04-06T08:57:59;101356.31;;;23.82;40.66
62617;BME280;62539;51.190;6.808;2023-04-06T09:00:25;101358.38;;;23.95;40.28
62617;BME280;62539;51.190;6.808;2023-04-06T09:02:53;101354.22;;;24.08;40.14
62617;BME280;62539;51.190;6.808;2023-04-06T09:05:21;101356.44;;;24.17;40.41
62617;BME280;62539;51.190;6.808;2023-04-06T09:07:50;101350.59;;;24.28;39.96
62617;BME280;62539;51.190;6.808;2023-04-06T09:10:16;101346.63;;;24.37;39.69
62617;BME280;62539;51.190;6.808;2023-04-06T09:12:42;101351.53;;;24.45;40.00
62617;BME280;62539;51.190;6.808;2023-04-06T09:15:18;101345.06;;;24.50;39.45
62617;BME280;62539;51.190;6.808;2023-04-06T09:17:45;101343.81;;;24.58;39.93
62617;BME280;62539;51.190;6.808;2023-04-06T09:20:11;101343.72;;;24.59;39.85
62617;BME280;62539;51.190;6.808;2023-04-06T09:22:40;101342.63;;;24.63;39.66
62617;BME280;62539;51.190;6.808;2023-04-06T09:25:08;101348.66;;;24.67;39.21
62617;BME280;62539;51.190;6.808;2023-04-06T09:27:36;101345.06;;;24.68;39.16
62617;BME280;62539;51.190;6.808;2023-04-06T09:30:10;101337.00;;;24.70;39.29
62617;BME280;62539;51.190;6.808;2023-04-06T09:32:47;101340.44;;;24.72;39.43
62617;BME280;62539;51.190;6.808;2023-04-06T09:35:14;101337.75;;;24.73;39.79
62617;BME280;62539;51.190;6.808;2023-04-06T09:37:42;101334.16;;;24.74;39.82
62617;BME280;62539;51.190;6.808;2023-04-06T09:40:08;101335.88;;;24.75;39.67
62617;BME280;62539;51.190;6.808;2023-04-06T09:42:35;101327.91;;;24.75;39.49
62617;BME280;62539;51.190;6.808;2023-04-06T09:45:02;101334.00;;;24.77;39.53
62617;BME280;62539;51.190;6.808;2023-04-06T09:47:30;101336.56;;;24.79;38.79
62617;BME280;62539;51.190;6.808;2023-04-06T09:49:57;101316.03;;;24.83;39.39
62617;BME280;62539;51.190;6.808;2023-04-06T09:52:26;101320.00;;;24.91;39.03
62617;BME280;62539;51.190;6.808;2023-04-06T09:54:59;101322.25;;;24.99;39.28
62617;BME280;62539;51.190;6.808;2023-04-06T09:57:32;101320.88;;;25.08;38.96
62617;BME280;62539;51.190;6.808;2023-04-06T10:00:07;101322.44;;;25.12;39.08
62617;BME280;62539;51.190;6.808;2023-04-06T10:05:42;101318.91;;;24.95;30.82
62617;BME280;62539;51.190;6.808;2023-04-06T10:08:12;101313.31;;;24.84;29.22
62617;BME280;62539;51.190;6.808;2023-04-06T10:10:39;101326.28;;;24.73;28.64
62617;BME280;62539;51.190;6.808;2023-04-06T10:13:05;101323.91;;;24.66;28.05
62617;BME280;62539;51.190;6.808;2023-04-06T10:15:31;101326.88;;;24.60;27.35
62617;BME280;62539;51.190;6.808;2023-04-06T10:17:58;101328.75;;;24.58;27.04
62617;BME280;62539;51.190;6.808;2023-04-06T10:20:33;101327.13;;;24.56;26.37
62617;BME280;62539;51.190;6.808;2023-04-06T10:23:11;101323.75;;;24.52;26.69
62617;BME280;62539;51.190;6.808;2023-04-06T10:25:51;101323.06;;;24.48;25.50
62617;BME280;62539;51.190;6.808;2023-04-06T10:28:19;101324.00;;;24.47;25.67
62617;BME280;62539;51.190;6.808;2023-04-06T10:30:45;101318.00;;;24.44;25.82
62617;BME280;62539;51.190;6.808;2023-04-06T10:33:18;101317.22;;;24.42;25.30
62617;BME280;62539;51.190;6.808;2023-04-06T10:35:45;101316.38;;;24.41;25.64
62617;BME280;62539;51.190;6.808;2023-04-06T10:38:12;101319.66;;;24.46;25.81
62617;BME280;62539;51.190;6.808;2023-04-06T10:40:40;101325.31;;;24.56;25.80
62617;BME280;62539;51.190;6.808;2023-04-06T10:43:19;101322.69;;;24.74;25.69
62617;BME280;62539;51.190;6.808;2023-04-06T10:45:56;101312.81;;;24.93;25.61
62617;BME280;62539;51.190;6.808;2023-04-06T10:48:24;101311.91;;;25.10;25.14
62617;BME280;62539;51.190;6.808;2023-04-06T10:50:52;101312.88;;;25.25;25.28
62617;BME280;62539;51.190;6.808;2023-04-06T10:53:22;101304.41;;;25.35;24.87
62617;BME280;62539;51.190;6.808;2023-04-06T10:55:50;101303.47;;;25.36;24.61
62617;BME280;62539;51.190;6.808;2023-04-06T10:58:16;101308.78;;;25.36;24.75
62617;BME280;62539;51.190;6.808;2023-04-06T11:00:46;101306.03;;;25.37;24.72
62617;BME280;62539;51.190;6.808;2023-04-06T11:03:13;101298.75;;;25.41;24.72
62617;BME280;62539;51.190;6.808;2023-04-06T11:05:46;101301.22;;;25.44;24.65
62617;BME280;62539;51.190;6.808;2023-04-06T11:08:30;101296.97;;;25.42;24.83
62617;BME280;62539;51.190;6.808;2023-04-06T11:11:14;101299.84;;;25.37;24.66
62617;BME280;62539;51.190;6.808;2023-04-06T11:13:45;101300.03;;;25.34;25.14
62617;BME280;62539;51.190;6.808;2023-04-06T11:16:19;101302.25;;;25.25;25.80
62617;BME280;62539;51.190;6.808;2023-04-06T11:18:59;101308.41;;;25.10;25.68
62617;BME280;62539;51.190;6.808;2023-04-06T11:21:46;101307.34;;;24.97;25.38
62617;BME280;62539;51.190;6.808;2023-04-06T11:26:46;101293.34;;;24.77;25.21
62617;BME280;62539;51.190;6.808;2023-04-06T11:29:17;101298.31;;;24.65;25.11
62617;BME280;62539;51.190;6.808;2023-04-06T11:31:49;101297.16;;;24.54;25.24
62617;BME280;62539;51.190;6.808;2023-04-06T11:34:18;101301.31;;;24.42;25.28
62617;BME280;62539;51.190;6.808;2023-04-06T11:36:46;101305.34;;;24.31;25.12
62617;BME280;62539;51.190;6.808;2023-04-06T11:39:17;101301.41;;;24.22;25.01
62617;BME280;62539;51.190;6.808;2023-04-06T11:41:48;101290.78;;;24.22;25.22
62617;BME280;62539;51.190;6.808;2023-04-06T11:44:15;101291.41;;;24.28;25.17
62617;BME280;62539;51.190;6.808;2023-04-06T11:46:41;101281.75;;;24.27;25.09
62617;BME280;62539;51.190;6.808;2023-04-06T11:49:16;101288.91;;;24.25;25.34
62617;BME280;62539;51.190;6.808;2023-04-06T11:51:42;101281.03;;;24.23;25.67
62617;BME280;62539;51.190;6.808;2023-04-06T11:54:07;101279.16;;;24.25;25.30
62617;BME280;62539;51.190;6.808;2023-04-06T11:56:32;101279.16;;;24.25;25.58
62617;BME280;62539;51.190;6.808;2023-04-06T11:58:58;101283.53;;;24.26;25.83
62617;BME280;62539;51.190;6.808;2023-04-06T12:01:25;101277.91;;;24.32;25.50
62617;BME280;62539;51.190;6.808;2023-04-06T12:03:51;101281.19;;;24.37;25.87
62617;BME280;62539;51.190;6.808;2023-04-06T12:06:18;101278.22;;;24.44;26.03
62617;BME280;62539;51.190;6.808;2023-04-06T12:08:43;101274.47;;;24.48;26.25
62617;BME280;62539;51.190;6.808;2023-04-06T12:11:10;101276.19;;;24.49;25.71
62617;BME280;62539;51.190;6.808;2023-04-06T12:13:35;101280.66;;;24.48;26.75
62617;BME280;62539;51.190;6.808;2023-04-06T12:16:01;101269.16;;;24.48;26.71
62617;BME280;62539;51.190;6.808;2023-04-06T12:18:26;101279.78;;;24.48;26.52
62617;BME280;62539;51.190;6.808;2023-04-06T12:20:51;101270.03;;;24.48;26.82
62617;BME280;62539;51.190;6.808;2023-04-06T12:23:19;101280.66;;;24.48;26.33
62617;BME280;62539;51.190;6.808;2023-04-06T12:25:44;101278.94;;;24.47;26.97
62617;BME280;62539;51.190;6.808;2023-04-06T12:28:10;101279.09;;;24.44;26.44
62617;BME280;62539;51.190;6.808;2023-04-06T12:30:36;101278.22;;;24.44;26.86
62617;BME280;62539;51.190;6.808;2023-04-06T12:33:01;101272.59;;;24.50;26.75
62617;BME280;62539;51.190;6.808;2023-04-06T12:35:27;101271.44;;;24.56;26.30
62617;BME280;62539;51.190;6.808;2023-04-06T12:37:53;101272.97;;;24.60;26.62
62617;BME280;62539;51.190;6.808;2023-04-06T12:40:18;101271.94;;;24.62;26.85
62617;BME280;62539;51.190;6.808;2023-04-06T12:42:44;101268.34;;;24.63;26.21
62617;BME280;62539;51.190;6.808;2023-04-06T12:45:11;101261.34;;;24.62;26.24
62617;BME280;62539;51.190;6.808;2023-04-06T12:47:36;101272.03;;;24.61;26.19
62617;BME280;62539;51.190;6.808;2023-04-06T12:50:03;101274.84;;;24.58;25.88
62617;BME280;62539;51.190;6.808;2023-04-06T12:52:31;101274.31;;;24.51;26.32